createdAt,value
2023-04-12T00:01:26.299Z,12.21
2023-04-12T00:04:00.297Z,12.20
2023-04-12T00:06:35.093Z,12.19
2023-04-12T00:09:08.541Z,12.20
2023-04-12T00:11:41.188Z,12.19
2023-04-12T00:14:13.908Z,12.19
2023-04-12T00:16:46.574Z,12.20
2023-04-12T00:19:19.581Z,12.19
2023-04-12T00:21:53.620Z,12.19
2023-04-12T00:24:26.859Z,12.19
2023-04-12T00:27:02.261Z,12.19
2023-04-12T00:29:34.944Z,12.21
2023-04-12T00:32:07.974Z,12.22
2023-04-12T00:34:40.590Z,12.22
2023-04-12T00:37:14.659Z,12.24
2023-04-12T00:39:47.365Z,12.24
2023-04-12T00:42:20.075Z,12.24
2023-04-12T00:44:52.730Z,12.24
2023-04-12T00:47:25.685Z,12.24
2023-04-12T00:49:58.328Z,12.26
2023-04-12T00:52:34.288Z,12.24
2023-04-12T00:55:08.325Z,12.24
2023-04-12T00:57:41.115Z,12.23
2023-04-12T01:00:14.217Z,12.24
2023-04-12T01:02:48.377Z,12.23
2023-04-12T01:05:23.556Z,12.23
2023-04-12T01:08:05.241Z,12.24
2023-04-12T01:10:42.805Z,12.24
2023-04-12T01:13:22.871Z,12.24
2023-04-12T01:15:59.765Z,12.25
2023-04-12T01:18:34.795Z,12.25
2023-04-12T01:21:09.791Z,12.24
2023-04-12T01:23:57.547Z,12.24
2023-04-12T01:26:34.494Z,12.22
2023-04-12T01:29:11.979Z,12.20
2023-04-12T01:31:50.606Z,12.17
2023-04-12T01:34:24.114Z,12.14
2023-04-12T01:36:58.419Z,12.13
2023-04-12T01:39:32.568Z,12.10
2023-04-12T01:42:05.331Z,12.10
2023-04-12T01:44:39.639Z,12.08
2023-04-12T01:47:12.370Z,12.05
2023-04-12T01:49:51.450Z,12.02
2023-04-12T01:52:26.523Z,12.01
2023-04-12T01:55:00.559Z,11.96
2023-04-12T01:57:34.143Z,11.94
2023-04-12T02:00:11.119Z,11.93
2023-04-12T02:02:45.087Z,11.91
2023-04-12T02:05:18.511Z,11.89
2023-04-12T02:07:51.747Z,11.86
2023-04-12T02:10:29.532Z,11.83
2023-04-12T02:13:02.462Z,11.80
2023-04-12T02:15:37.286Z,11.79
2023-04-12T02:18:09.982Z,11.76
2023-04-12T02:20:43.907Z,11.77
2023-04-12T02:23:16.684Z,11.76
2023-04-12T02:25:49.427Z,11.76
2023-04-12T02:28:23.224Z,11.78
2023-04-12T02:30:57.560Z,11.78
2023-04-12T02:33:30.754Z,11.79
2023-04-12T02:36:03.870Z,11.80
2023-04-12T02:38:36.633Z,11.78
2023-04-12T02:41:09.609Z,11.78
2023-04-12T02:43:42.220Z,11.78
2023-04-12T02:46:18.368Z,11.76
2023-04-12T02:48:51.075Z,11.74
2023-04-12T02:51:23.797Z,11.72
2023-04-12T02:53:56.750Z,11.70
2023-04-12T02:56:29.978Z,11.68
2023-04-12T02:59:03.107Z,11.70
2023-04-12T03:01:39.471Z,11.69
2023-04-12T03:04:12.393Z,11.70
2023-04-12T03:06:54.292Z,11.69
2023-04-12T03:09:27.209Z,11.69
2023-04-12T03:12:00.053Z,11.69
2023-04-12T03:14:32.849Z,11.70
2023-04-12T03:17:07.498Z,11.70
2023-04-12T03:19:40.302Z,11.71
2023-04-12T03:22:13.382Z,11.70
2023-04-12T03:24:46.120Z,11.72
2023-04-12T03:27:18.874Z,11.72
2023-04-12T03:29:52.270Z,11.73
2023-04-12T03:32:27.071Z,11.72
2023-04-12T03:35:00.379Z,11.73
2023-04-12T03:37:33.278Z,11.75
2023-04-12T03:40:07.370Z,11.75
2023-04-12T03:42:40.201Z,11.75
2023-04-12T03:45:13.296Z,11.73
2023-04-12T03:47:47.517Z,11.72
2023-04-12T03:50:20.838Z,11.72
2023-04-12T03:52:53.584Z,11.72
2023-04-12T03:55:26.269Z,11.73
2023-04-12T03:57:58.992Z,11.73
2023-04-12T04:00:32.123Z,11.74
2023-04-12T04:03:06.650Z,11.73
2023-04-12T04:05:39.580Z,11.76
2023-04-12T04:08:12.305Z,11.77
2023-04-12T04:10:45.038Z,11.76
2023-04-12T04:13:17.750Z,11.76
2023-04-12T04:15:53.278Z,11.75
2023-04-12T04:18:27.347Z,11.73
2023-04-12T04:21:00.139Z,11.75
2023-04-12T04:23:38.557Z,11.76
2023-04-12T04:26:11.561Z,11.75
2023-04-12T04:28:45.611Z,11.76
2023-04-12T04:31:18.461Z,11.77
2023-04-12T04:33:52.644Z,11.77
2023-04-12T04:36:26.484Z,11.77
2023-04-12T04:38:59.147Z,11.78
2023-04-12T04:41:34.567Z,11.80
2023-04-12T04:44:09.758Z,11.82
2023-04-12T04:46:42.447Z,11.80
2023-04-12T04:49:16.735Z,11.82
2023-04-12T04:51:49.543Z,11.83
2023-04-12T04:54:22.262Z,11.85
2023-04-12T04:56:54.978Z,11.87
2023-04-12T04:59:28.049Z,11.88
2023-04-12T05:02:00.802Z,11.90
2023-04-12T05:04:35.407Z,11.91
2023-04-12T05:07:08.063Z,11.91
2023-04-12T05:09:41.216Z,11.94
2023-04-12T05:12:14.300Z,11.95
2023-04-12T05:14:51.479Z,11.96
2023-04-12T05:17:25.004Z,11.97
2023-04-12T05:19:59.045Z,11.95
2023-04-12T05:22:32.762Z,11.97
2023-04-12T05:25:06.384Z,11.98
2023-04-12T05:27:39.103Z,11.97
2023-04-12T05:30:12.373Z,11.97
2023-04-12T05:32:45.298Z,11.99
2023-04-12T05:35:19.671Z,11.99
2023-04-12T05:37:52.336Z,12.01
2023-04-12T05:40:25.014Z,12.04
2023-04-12T05:42:57.706Z,12.05
2023-04-12T05:45:30.419Z,12.08
2023-04-12T05:48:03.535Z,12.12
2023-04-12T05:50:37.680Z,12.13
2023-04-12T05:53:10.682Z,12.19
2023-04-12T05:55:43.802Z,12.20
2023-04-12T05:58:16.775Z,12.24
2023-04-12T06:00:49.739Z,12.27
2023-04-12T06:03:23.814Z,12.31
2023-04-12T06:05:58.513Z,12.36
2023-04-12T06:08:31.378Z,12.39
2023-04-12T06:11:04.185Z,12.44
2023-04-12T06:13:36.859Z,12.49
2023-04-12T06:16:09.749Z,12.53
2023-04-12T06:18:43.890Z,12.57
2023-04-12T06:21:18.054Z,12.60
2023-04-12T06:23:50.840Z,12.64
2023-04-12T06:26:23.568Z,12.68
2023-04-12T06:28:56.798Z,12.72
2023-04-12T06:31:29.785Z,12.76
2023-04-12T06:34:02.497Z,12.81
2023-04-12T06:36:36.577Z,12.85
2023-04-12T06:39:09.384Z,12.90
2023-04-12T06:41:43.778Z,12.94
2023-04-12T06:44:16.442Z,12.98
2023-04-12T06:46:49.188Z,12.99
2023-04-12T06:49:21.951Z,13.01
2023-04-12T06:51:56.040Z,13.04
2023-04-12T06:54:28.786Z,13.06
2023-04-12T06:57:02.178Z,13.10
2023-04-12T06:59:34.942Z,13.18
2023-04-12T07:02:08.082Z,13.25
2023-04-12T07:04:40.822Z,13.33
2023-04-12T07:07:15.025Z,13.41
2023-04-12T07:09:48.410Z,13.52
2023-04-12T07:12:21.512Z,13.65
2023-04-12T07:14:54.183Z,13.78
2023-04-12T07:17:27.620Z,13.90
2023-04-12T07:20:00.261Z,14.05
2023-04-12T07:22:34.437Z,14.20
2023-04-12T07:25:10.332Z,14.35
2023-04-12T07:27:43.015Z,14.50
2023-04-12T07:30:15.854Z,14.64
2023-04-12T07:32:48.766Z,14.80
2023-04-12T07:35:22.183Z,14.92
2023-04-12T07:37:56.229Z,15.04
2023-04-12T07:40:28.953Z,15.15
2023-04-12T07:43:01.552Z,15.26
2023-04-12T07:45:34.189Z,15.36
2023-04-12T07:48:07.433Z,15.48
2023-04-12T07:50:41.213Z,15.61
2023-04-12T07:53:22.286Z,15.78
2023-04-12T07:55:55.512Z,15.97
2023-04-12T07:58:28.206Z,16.12
2023-04-12T08:01:01.400Z,16.29
2023-04-12T08:03:34.388Z,16.43
2023-04-12T08:06:08.045Z,16.58
2023-04-12T08:08:42.255Z,16.68
2023-04-12T08:11:14.926Z,16.82
2023-04-12T08:13:47.630Z,16.91
2023-04-12T08:16:21.112Z,17.04
2023-04-12T08:18:53.869Z,17.17
2023-04-12T08:21:27.688Z,17.30
2023-04-12T08:24:01.772Z,17.46
2023-04-12T08:26:34.410Z,17.62
2023-04-12T08:29:07.130Z,17.77
2023-04-12T08:31:40.188Z,17.92
2023-04-12T08:34:12.942Z,18.05
2023-04-12T08:36:45.774Z,18.15
2023-04-12T08:39:19.878Z,18.26
2023-04-12T08:41:53.022Z,18.34
2023-04-12T08:44:34.952Z,18.42
2023-04-12T08:47:08.549Z,18.52
2023-04-12T08:49:41.381Z,18.61
2023-04-12T08:52:14.433Z,18.70
2023-04-12T08:54:48.453Z,18.82
2023-04-12T08:57:21.530Z,18.93
2023-04-12T08:59:55.591Z,19.05
2023-04-12T09:02:28.473Z,19.19
2023-04-12T09:05:01.376Z,19.31
2023-04-12T09:07:34.853Z,19.41
2023-04-12T09:10:09.893Z,19.49
2023-04-12T09:12:46.978Z,19.55
2023-04-12T09:15:19.615Z,19.61
2023-04-12T09:18:03.760Z,19.67
2023-04-12T09:20:36.722Z,19.71
2023-04-12T09:23:19.875Z,19.78
2023-04-12T09:25:54.029Z,19.81
2023-04-12T09:28:27.216Z,19.86
2023-04-12T09:31:00.579Z,19.90
2023-04-12T09:33:37.252Z,19.96
2023-04-12T09:36:13.730Z,20.09
2023-04-12T09:38:59.440Z,20.19
2023-04-12T09:41:33.563Z,20.32
2023-04-12T09:44:06.321Z,20.45
2023-04-12T09:46:53.548Z,20.61
2023-04-12T09:49:37.226Z,20.76
2023-04-12T09:52:11.180Z,20.87
2023-04-12T09:54:44.652Z,20.99
2023-04-12T09:57:20.941Z,21.11
2023-04-12T09:59:54.509Z,21.23
2023-04-12T10:02:28.911Z,21.38
2023-04-12T10:05:02.370Z,21.53
2023-04-12T10:07:37.678Z,21.67
2023-04-12T10:10:12.506Z,21.80
2023-04-12T10:12:47.823Z,21.94
2023-04-12T10:15:21.822Z,22.06
2023-04-12T10:17:55.519Z,22.15
2023-04-12T10:20:29.607Z,22.26
2023-04-12T10:23:02.944Z,22.30
2023-04-12T10:25:36.064Z,22.35
2023-04-12T10:28:17.445Z,22.37
2023-04-12T10:30:52.182Z,22.37
2023-04-12T10:33:27.005Z,22.37
2023-04-12T10:36:03.019Z,22.39
2023-04-12T10:38:47.182Z,22.43
2023-04-12T10:41:21.112Z,22.45
2023-04-12T10:44:15.349Z,22.50
2023-04-12T10:46:48.699Z,22.55
2023-04-12T10:49:21.455Z,22.61
2023-04-12T10:52:08.991Z,22.63
2023-04-12T10:54:41.904Z,22.64
2023-04-12T10:57:35.736Z,22.64
2023-04-12T11:00:10.751Z,22.61
2023-04-12T11:03:02.458Z,22.55
2023-04-12T11:05:50.148Z,22.50
2023-04-12T11:08:24.363Z,22.42
2023-04-12T11:11:03.575Z,22.30
2023-04-12T11:13:37.178Z,22.16
2023-04-12T11:16:12.874Z,22.05
2023-04-12T11:18:47.650Z,21.86
2023-04-12T11:21:20.608Z,21.74
2023-04-12T11:23:54.611Z,21.61
2023-04-12T11:26:31.034Z,21.46
2023-04-12T11:29:08.000Z,21.35
2023-04-12T11:31:42.060Z,21.19
2023-04-12T11:34:16.114Z,21.04
2023-04-12T11:36:50.573Z,20.90
2023-04-12T11:39:23.244Z,20.77
2023-04-12T11:41:55.924Z,20.62
2023-04-12T11:44:28.636Z,20.46
2023-04-12T11:47:02.783Z,20.31
2023-04-12T11:49:35.577Z,20.16
2023-04-12T11:52:08.803Z,20.04
2023-04-12T11:54:45.785Z,19.96
2023-04-12T11:57:19.517Z,19.92
2023-04-12T11:59:52.349Z,19.93
2023-04-12T12:02:30.388Z,19.96
2023-04-12T12:05:07.024Z,20.01
2023-04-12T12:07:40.182Z,20.11
2023-04-12T12:10:18.429Z,20.19
2023-04-12T12:12:58.654Z,20.27
2023-04-12T12:15:31.861Z,20.33
2023-04-12T12:18:08.230Z,20.38
2023-04-12T12:20:42.568Z,20.39
2023-04-12T12:23:28.153Z,20.39
2023-04-12T12:26:17.000Z,20.36
2023-04-12T12:28:52.505Z,20.32
2023-04-12T12:31:26.311Z,20.28
2023-04-12T12:34:01.119Z,20.27
2023-04-12T12:36:34.567Z,20.25
2023-04-12T12:39:09.993Z,20.25
2023-04-12T12:41:42.693Z,20.24
2023-04-12T12:44:15.399Z,20.25
2023-04-12T12:46:56.830Z,20.28
2023-04-12T12:49:31.756Z,20.28
2023-04-12T12:52:04.385Z,20.32
2023-04-12T12:54:41.436Z,20.34
2023-04-12T12:57:14.615Z,20.34
2023-04-12T12:59:47.365Z,20.34
2023-04-12T13:02:20.209Z,20.32
2023-04-12T13:04:54.621Z,20.26
2023-04-12T13:07:27.483Z,20.21
2023-04-12T13:10:00.445Z,20.15
2023-04-12T13:12:33.372Z,20.08
2023-04-12T13:15:20.188Z,20.02
2023-04-12T13:17:54.834Z,19.95
2023-04-12T13:20:29.078Z,19.89
2023-04-12T13:23:01.881Z,19.83
2023-04-12T13:25:34.487Z,19.76
2023-04-12T13:28:07.267Z,19.69
2023-04-12T13:30:39.917Z,19.60
2023-04-12T13:33:16.557Z,19.49
2023-04-12T13:35:53.314Z,19.36
2023-04-12T13:38:26.014Z,19.20
2023-04-12T13:40:58.633Z,19.06
2023-04-12T13:43:31.357Z,18.92
2023-04-12T13:46:04.069Z,18.79
2023-04-12T13:48:37.460Z,18.66
2023-04-12T13:51:11.712Z,18.52
2023-04-12T13:53:44.444Z,18.39
2023-04-12T13:56:17.151Z,18.28
2023-04-12T13:58:49.836Z,18.18
2023-04-12T14:01:23.713Z,18.10
2023-04-12T14:03:57.119Z,18.04
2023-04-12T14:06:31.693Z,17.99
2023-04-12T14:09:05.666Z,17.98
2023-04-12T14:11:48.106Z,17.96
2023-04-12T14:14:20.767Z,17.99
2023-04-12T14:16:54.807Z,18.02
2023-04-12T14:19:27.628Z,18.06
2023-04-12T14:22:02.538Z,18.12
2023-04-12T14:24:35.378Z,18.18
2023-04-12T14:27:08.021Z,18.24
2023-04-12T14:29:40.781Z,18.31
2023-04-12T14:32:13.448Z,18.36
2023-04-12T14:34:46.538Z,18.39
2023-04-12T14:37:20.634Z,18.43
2023-04-12T14:39:54.487Z,18.50
2023-04-12T14:42:27.109Z,18.55
2023-04-12T14:44:59.809Z,18.57
2023-04-12T14:47:32.547Z,18.62
2023-04-12T14:50:05.466Z,18.67
2023-04-12T14:52:39.519Z,18.72
2023-04-12T14:55:12.185Z,18.73
2023-04-12T14:57:45.103Z,18.76
2023-04-12T15:00:18.582Z,18.78
2023-04-12T15:02:51.410Z,18.78
2023-04-12T15:05:24.420Z,18.80
2023-04-12T15:07:58.481Z,18.79
2023-04-12T15:10:31.574Z,18.79
2023-04-12T15:13:04.238Z,18.78
2023-04-12T15:15:37.003Z,18.77
2023-04-12T15:18:10.491Z,18.75
2023-04-12T15:20:43.627Z,18.68
2023-04-12T15:23:17.655Z,18.62
2023-04-12T15:25:50.605Z,18.55
2023-04-12T15:28:23.284Z,18.46
2023-04-12T15:30:56.289Z,18.35
2023-04-12T15:33:29.378Z,18.23
2023-04-12T15:36:02.375Z,18.12
2023-04-12T15:38:41.508Z,17.99
2023-04-12T15:41:14.222Z,17.87
2023-04-12T15:43:49.471Z,17.73
2023-04-12T15:46:22.366Z,17.60
2023-04-12T15:48:55.256Z,17.48
2023-04-12T15:51:28.283Z,17.38
2023-04-12T15:54:02.513Z,17.26
2023-04-12T15:56:35.862Z,17.18
2023-04-12T15:59:09.186Z,17.07
2023-04-12T16:01:41.932Z,17.00
2023-04-12T16:04:16.209Z,16.92
2023-04-12T16:06:48.964Z,16.86
2023-04-12T16:09:24.096Z,16.81
2023-04-12T16:11:57.409Z,16.74
2023-04-12T16:14:30.620Z,16.69
2023-04-12T16:17:03.744Z,16.65
2023-04-12T16:19:36.445Z,16.60
2023-04-12T16:22:09.129Z,16.56
2023-04-12T16:24:43.219Z,16.52
2023-04-12T16:27:15.880Z,16.48
2023-04-12T16:29:48.937Z,16.45
2023-04-12T16:32:21.795Z,16.40
2023-04-12T16:34:54.694Z,16.37
2023-04-12T16:37:29.001Z,16.33
2023-04-12T16:40:06.875Z,16.29
2023-04-12T16:42:39.864Z,16.25
2023-04-12T16:45:14.463Z,16.21
2023-04-12T16:47:47.563Z,16.17
2023-04-12T16:52:54.258Z,16.08
2023-04-12T16:55:30.068Z,16.02
2023-04-12T16:58:02.781Z,15.99
2023-04-12T17:00:36.051Z,15.93
2023-04-12T17:03:09.013Z,15.89
2023-04-12T17:05:42.347Z,15.84
2023-04-12T17:08:15.741Z,15.79
2023-04-12T17:10:50.101Z,15.73
2023-04-12T17:13:23.331Z,15.67
2023-04-12T17:15:56.013Z,15.63
2023-04-12T17:18:28.748Z,15.59
2023-04-12T17:21:01.947Z,15.56
2023-04-12T17:23:36.728Z,15.49
2023-04-12T17:26:11.479Z,15.46
2023-04-12T17:28:44.158Z,15.42
2023-04-12T17:31:17.444Z,15.37
2023-04-12T17:33:50.267Z,15.35
2023-04-12T17:36:22.982Z,15.32
2023-04-12T17:38:57.168Z,15.28
2023-04-12T17:41:31.751Z,15.25
2023-04-12T17:44:04.444Z,15.21
2023-04-12T17:46:37.433Z,15.18
2023-04-12T17:49:10.099Z,15.12
2023-04-12T17:51:42.740Z,15.08
2023-04-12T17:54:15.378Z,15.05
2023-04-12T17:56:51.440Z,15.02
2023-04-12T17:59:24.345Z,15.01
2023-04-12T18:01:57.177Z,14.96
2023-04-12T18:04:30.345Z,14.93
2023-04-12T18:07:04.485Z,14.90
2023-04-12T18:09:38.361Z,14.85
2023-04-12T18:12:13.143Z,14.83
2023-04-12T18:14:45.902Z,14.80
2023-04-12T18:17:18.862Z,14.77
2023-04-12T18:19:51.674Z,14.71
2023-04-12T18:22:24.708Z,14.68
2023-04-12T18:24:57.450Z,14.60
2023-04-12T18:27:32.549Z,14.55
2023-04-12T18:30:05.613Z,14.44
2023-04-12T18:32:38.377Z,14.30
2023-04-12T18:35:11.470Z,14.19
2023-04-12T18:37:44.275Z,14.01
2023-04-12T18:40:18.168Z,13.86
2023-04-12T18:42:52.634Z,13.70
2023-04-12T18:45:26.245Z,13.54
2023-04-12T18:48:00.539Z,13.39
2023-04-12T18:50:33.617Z,13.24
2023-04-12T18:53:06.598Z,13.13
2023-04-12T18:55:39.518Z,13.02
2023-04-12T18:58:13.905Z,12.90
2023-04-12T19:00:47.024Z,12.79
2023-04-12T19:03:19.861Z,12.70
2023-04-12T19:05:54.895Z,12.62
2023-04-12T19:08:29.114Z,12.54
2023-04-12T19:11:02.053Z,12.46
2023-04-12T19:13:38.830Z,12.40
2023-04-12T19:16:13.568Z,12.34
2023-04-12T19:18:48.100Z,12.30
2023-04-12T19:21:22.606Z,12.25
2023-04-12T19:23:57.287Z,12.21
2023-04-12T19:26:32.175Z,12.16
2023-04-12T19:29:08.056Z,12.14
2023-04-12T19:31:44.782Z,12.13
2023-04-12T19:34:20.202Z,12.13
2023-04-12T19:36:54.444Z,12.13
2023-04-12T19:39:28.172Z,12.14
2023-04-12T19:42:01.868Z,12.13
2023-04-12T19:44:40.423Z,12.11
2023-04-12T19:47:15.346Z,12.11
2023-04-12T19:49:49.335Z,12.11
2023-04-12T19:52:24.375Z,12.09
2023-04-12T19:54:58.274Z,12.11
2023-04-12T19:57:33.102Z,12.10
2023-04-12T20:00:13.743Z,12.09
2023-04-12T20:02:47.511Z,12.09
2023-04-12T20:05:21.191Z,12.09
2023-04-12T20:07:56.343Z,12.07
2023-04-12T20:10:29.536Z,12.06
2023-04-12T20:13:05.167Z,12.05
2023-04-12T20:15:41.811Z,12.04
2023-04-12T20:18:16.474Z,12.01
2023-04-12T20:20:50.013Z,12.00
2023-04-12T20:23:24.408Z,11.98
2023-04-12T20:25:59.633Z,11.95
2023-04-12T20:28:34.034Z,11.92
2023-04-12T20:31:10.135Z,11.93
2023-04-12T20:33:44.579Z,11.92
2023-04-12T20:36:19.043Z,11.93
2023-04-12T20:38:53.682Z,11.94
2023-04-12T20:41:28.174Z,11.95
2023-04-12T20:44:01.133Z,11.95
2023-04-12T20:46:38.315Z,11.95
2023-04-12T20:49:12.148Z,11.94
2023-04-12T20:51:48.220Z,11.94
2023-04-12T20:54:24.448Z,11.92
2023-04-12T20:56:59.301Z,11.94
2023-04-12T20:59:33.097Z,11.93
2023-04-12T21:02:09.333Z,11.92
2023-04-12T21:04:43.337Z,11.94
2023-04-12T21:07:16.196Z,11.95
2023-04-12T21:09:49.424Z,11.95
2023-04-12T21:12:23.949Z,11.93
2023-04-12T21:14:57.729Z,11.95
2023-04-12T21:17:32.008Z,11.95
2023-04-12T21:20:13.922Z,11.94
2023-04-12T21:22:48.099Z,11.91
2023-04-12T21:25:21.654Z,11.84
2023-04-12T21:27:54.929Z,11.75
2023-04-12T21:30:27.968Z,11.64
2023-04-12T21:33:02.319Z,11.55
2023-04-12T21:35:35.297Z,11.43
2023-04-12T21:38:08.338Z,11.32
2023-04-12T21:40:41.189Z,11.22
2023-04-12T21:43:13.941Z,11.15
2023-04-12T21:45:47.091Z,11.06
2023-04-12T21:48:21.291Z,10.95
2023-04-12T21:50:53.966Z,10.89
2023-04-12T21:53:27.753Z,10.81
2023-04-12T21:56:01.224Z,10.76
2023-04-12T21:58:34.254Z,10.70
2023-04-12T22:01:07.558Z,10.66
2023-04-12T22:03:42.309Z,10.59
2023-04-12T22:06:15.387Z,10.55
2023-04-12T22:08:48.269Z,10.49
2023-04-12T22:11:21.188Z,10.46
2023-04-12T22:13:54.407Z,10.41
2023-04-12T22:16:28.121Z,10.35
2023-04-12T22:19:02.639Z,10.31
2023-04-12T22:21:35.907Z,10.28
2023-04-12T22:24:09.065Z,10.23
2023-04-12T22:26:42.341Z,10.18
2023-04-12T22:29:17.849Z,10.14
2023-04-12T22:31:50.611Z,10.12
2023-04-12T22:34:25.013Z,10.09
2023-04-12T22:36:59.989Z,10.07
2023-04-12T22:39:32.805Z,10.08
2023-04-12T22:42:06.450Z,10.04
2023-04-12T22:44:39.395Z,10.04
2023-04-12T22:47:13.911Z,10.04
2023-04-12T22:49:50.507Z,10.03
2023-04-12T22:52:23.593Z,10.03
2023-04-12T22:54:57.109Z,10.04
2023-04-12T22:57:29.940Z,10.04
2023-04-12T23:00:04.343Z,10.04
2023-04-12T23:02:37.790Z,10.05
2023-04-12T23:05:14.444Z,10.07
2023-04-12T23:07:49.198Z,10.08
2023-04-12T23:10:23.036Z,10.09
2023-04-12T23:12:55.762Z,10.10
2023-04-12T23:15:28.467Z,10.12
2023-04-12T23:18:01.842Z,10.11
2023-04-12T23:20:36.910Z,10.14
2023-04-12T23:23:10.051Z,10.15
2023-04-12T23:25:42.836Z,10.16
2023-04-12T23:28:19.429Z,10.17
2023-04-12T23:30:52.631Z,10.18
2023-04-12T23:33:25.408Z,10.20
2023-04-12T23:36:02.790Z,10.23
2023-04-12T23:38:36.189Z,10.23
2023-04-12T23:41:12.639Z,10.21
2023-04-12T23:43:45.493Z,10.23
2023-04-12T23:46:18.391Z,10.20
2023-04-12T23:48:51.248Z,10.24
2023-04-12T23:51:25.297Z,10.19
2023-04-12T23:53:58.272Z,10.20
2023-04-12T23:56:31.587Z,10.23
2023-04-12T23:59:04.371Z,10.23
